Time;durP1;ratioP1;P1;durP2;ratioP2;P2;SDS_P1;SDS_P2;PMS_P1;PMS_P2;Temp;Humidity;BMP_temperature;BMP_pressure;BME280_temperature;BME280_humidity;BME280_pressure;Samples;Min_cycle;Max_cycle;Signal;HPM_P1;HPM_P2
2024/03/05 00:01:32;;;;;;;44.80;25.63;;;8.80;99.90;;;;;;5056229;28;20510;-68
2024/03/05 00:03:57;;;;;;;45.70;30.00;;;8.80;99.90;;;;;;5057216;28;20569;-68
2024/03/05 00:06:23;;;;;;;45.67;28.80;;;8.80;99.90;;;;;;5061340;28;20204;-68
2024/03/05 00:08:49;;;;;;;39.07;25.37;;;8.80;99.90;;;;;;5046551;28;20198;-68
2024/03/05 00:11:14;;;;;;;43.70;26.30;;;8.90;99.90;;;;;;5067683;28;20455;-68
2024/03/05 00:13:40;;;;;;;36.20;24.60;;;8.80;99.90;;;;;;5060904;28;20185;-69
2024/03/05 00:16:05;;;;;;;40.97;25.40;;;8.90;99.90;;;;;;5057105;28;20197;-68
2024/03/05 00:18:31;;;;;;;42.70;25.50;;;8.90;99.90;;;;;;5054356;28;20219;-68
2024/03/05 00:20:57;;;;;;;41.83;25.87;;;8.80;99.90;;;;;;5055041;28;20178;-68
2024/03/05 00:23:22;;;;;;;45.73;26.80;;;8.80;99.90;;;;;;5039352;28;20186;-68
2024/03/05 00:25:48;;;;;;;41.07;26.10;;;8.80;99.90;;;;;;5057245;28;20204;-68
2024/03/05 00:28:14;;;;;;;39.20;24.80;;;8.70;99.90;;;;;;5052269;28;20275;-68
2024/03/05 00:30:39;;;;;;;44.93;26.43;;;8.80;99.90;;;;;;5058970;28;20640;-68
2024/03/05 00:33:06;;;;;;;43.83;26.07;;;8.80;99.90;;;;;;5060036;28;20237;-68
2024/03/05 00:35:31;;;;;;;43.33;26.97;;;8.90;99.90;;;;;;5052113;28;20180;-68
2024/03/05 00:37:57;;;;;;;41.37;24.80;;;8.90;99.90;;;;;;5062447;28;20450;-68
2024/03/05 00:40:22;;;;;;;38.83;26.23;;;8.90;99.90;;;;;;5045837;28;20228;-68
2024/03/05 00:42:48;;;;;;;39.30;25.43;;;8.90;99.90;;;;;;5041281;28;20178;-68
2024/03/05 00:45:17;;;;;;;40.60;26.07;;;8.80;99.90;;;;;;5056483;28;20553;-68
2024/03/05 00:47:43;;;;;;;38.93;25.67;;;8.80;99.90;;;;;;5052673;28;20659;-68
2024/03/05 00:50:13;;;;;;;42.10;25.47;;;8.80;99.90;;;;;;5061825;28;20922;-68
2024/03/05 00:52:39;;;;;;;42.00;25.97;;;8.90;99.90;;;;;;5043271;28;20448;-68
2024/03/05 00:55:08;;;;;;;46.37;28.50;;;8.80;99.90;;;;;;5048947;28;20946;-68
2024/03/05 00:57:35;;;;;;;45.10;27.00;;;8.80;99.90;;;;;;5058591;28;20194;-68
2024/03/05 01:00:00;;;;;;;39.97;25.97;;;8.70;99.90;;;;;;5044324;28;20456;-67
2024/03/05 01:02:27;;;;;;;43.17;25.83;;;8.70;99.90;;;;;;5052037;28;20427;-68
2024/03/05 01:04:53;;;;;;;43.70;26.00;;;8.80;99.90;;;;;;5051301;28;20212;-68
2024/03/05 01:07:19;;;;;;;36.33;24.83;;;8.80;99.90;;;;;;5043888;28;20421;-68
2024/03/05 01:09:44;;;;;;;38.90;23.43;;;8.70;99.90;;;;;;5046966;28;20447;-69
2024/03/05 01:12:10;;;;;;;39.37;23.63;;;8.80;99.90;;;;;;5063493;28;20247;-68
2024/03/05 01:14:36;;;;;;;39.03;25.17;;;8.80;99.90;;;;;;5061547;28;20173;-68
2024/03/05 01:17:04;;;;;;;40.53;25.23;;;8.80;99.90;;;;;;5061560;28;20470;-68
2024/03/05 01:19:30;;;;;;;39.60;25.60;;;8.80;99.90;;;;;;5054997;28;20185;-68
2024/03/05 01:21:58;;;;;;;45.13;27.13;;;8.80;99.90;;;;;;5054099;28;20424;-68
2024/03/05 01:24:25;;;;;;;51.97;26.97;;;8.80;99.90;;;;;;5071335;28;20472;-68
2024/03/05 01:26:51;;;;;;;38.80;26.70;;;8.80;99.90;;;;;;5033931;28;20427;-68
2024/03/05 01:29:17;;;;;;;46.33;27.40;;;8.80;99.90;;;;;;5049233;28;20458;-67
2024/03/05 01:31:44;;;;;;;42.83;25.43;;;8.90;99.90;;;;;;5048601;28;20540;-68
2024/03/05 01:34:10;;;;;;;39.57;24.57;;;8.90;99.90;;;;;;5047324;28;20856;-68
2024/03/05 01:36:36;;;;;;;41.40;25.10;;;8.90;99.90;;;;;;5044755;28;20470;-68
2024/03/05 01:39:03;;;;;;;42.00;26.33;;;8.80;99.90;;;;;;5058580;28;20498;-68
2024/03/05 01:41:28;;;;;;;42.70;27.10;;;8.90;99.90;;;;;;5061643;28;20688;-68
2024/03/05 01:43:54;;;;;;;34.10;24.63;;;8.80;99.90;;;;;;5050111;28;20432;-69
2024/03/05 01:46:19;;;;;;;42.87;26.97;;;8.80;99.90;;;;;;5049234;28;20191;-68
2024/03/05 01:48:45;;;;;;;40.53;24.30;;;8.80;99.90;;;;;;5056363;28;20675;-68
2024/03/05 01:51:14;;;;;;;44.37;25.93;;;8.80;99.90;;;;;;5054169;28;20375;-68
2024/03/05 01:53:41;;;;;;;36.30;23.63;;;8.80;99.90;;;;;;5059887;28;20197;-68
2024/03/05 01:56:07;;;;;;;35.93;24.10;;;8.70;99.90;;;;;;5053172;28;20563;-68
2024/03/05 01:58:33;;;;;;;41.03;26.47;;;8.70;99.90;;;;;;5057620;28;20927;-68
2024/03/05 02:01:02;;;;;;;46.20;27.63;;;8.70;99.90;;;;;;5036887;28;20276;-68
2024/03/05 02:03:28;;;;;;;44.40;26.17;;;8.70;99.90;;;;;;5045213;28;20424;-68
2024/03/05 02:05:59;;;;;;;41.40;24.00;;;8.70;99.90;;;;;;5039659;28;20514;-68
2024/03/05 02:08:26;;;;;;;39.97;29.40;;;8.70;99.90;;;;;;5057036;28;20456;-68
2024/03/05 02:10:52;;;;;;;39.07;24.50;;;8.70;99.90;;;;;;5056189;28;20775;-68
2024/03/05 02:13:17;;;;;;;36.97;24.33;;;8.70;99.90;;;;;;5052267;28;20511;-68
2024/03/05 02:15:43;;;;;;;43.17;26.40;;;8.70;99.90;;;;;;5048766;28;20292;-68
2024/03/05 02:18:09;;;;;;;39.83;25.63;;;8.70;99.90;;;;;;5059306;28;20213;-69
2024/03/05 02:20:35;;;;;;;38.80;23.83;;;8.70;99.90;;;;;;5048878;28;20444;-69
2024/03/05 02:23:02;;;;;;;40.30;26.63;;;8.60;99.90;;;;;;5048464;28;20236;-69
2024/03/05 02:25:30;;;;;;;37.80;25.30;;;8.60;99.90;;;;;;5062931;28;20173;-70
2024/03/05 02:27:55;;;;;;;42.27;24.30;;;8.60;99.90;;;;;;5033483;28;20519;-70
2024/03/05 02:30:22;;;;;;;33.47;22.90;;;8.60;99.90;;;;;;5042476;28;20543;-69
2024/03/05 02:32:47;;;;;;;34.10;23.40;;;8.60;99.90;;;;;;5054271;28;20222;-70
2024/03/05 02:35:13;;;;;;;46.10;25.63;;;8.60;99.90;;;;;;5055203;28;20436;-70
2024/03/05 02:37:39;;;;;;;41.57;25.90;;;8.60;99.90;;;;;;5055307;28;20608;-69
2024/03/05 02:40:10;;;;;;;47.00;26.83;;;8.60;99.90;;;;;;5056586;28;20199;-70
2024/03/05 02:42:36;;;;;;;39.97;24.47;;;8.60;99.90;;;;;;5048909;28;20938;-69
2024/03/05 02:45:04;;;;;;;42.13;25.10;;;8.70;99.90;;;;;;5034791;28;20463;-69
2024/03/05 02:47:34;;;;;;;40.63;24.70;;;8.70;99.90;;;;;;5041384;28;20431;-69
2024/03/05 02:50:00;;;;;;;39.73;25.97;;;8.60;99.90;;;;;;5048458;28;20768;-69
2024/03/05 02:52:28;;;;;;;42.10;24.00;;;8.50;99.90;;;;;;5062271;28;20453;-69
2024/03/05 02:54:54;;;;;;;44.00;26.90;;;8.50;99.90;;;;;;5047094;28;20436;-69
2024/03/05 02:57:19;;;;;;;38.67;24.37;;;8.50;99.90;;;;;;5062429;28;20455;-69
2024/03/05 02:59:45;;;;;;;47.77;27.03;;;8.50;99.90;;;;;;5049456;28;20194;-69
2024/03/05 03:02:10;;;;;;;45.70;25.50;;;8.40;99.90;;;;;;5046574;28;20548;-69
2024/03/05 03:04:37;;;;;;;44.00;26.10;;;8.40;99.90;;;;;;5054428;28;20178;-69
2024/03/05 03:07:03;;;;;;;46.73;26.73;;;8.40;99.90;;;;;;5049678;28;20256;-69
2024/03/05 03:09:28;;;;;;;44.07;28.70;;;8.40;99.90;;;;;;5056680;28;20534;-69
2024/03/05 03:11:55;;;;;;;45.10;29.37;;;8.40;99.90;;;;;;5053578;28;20201;-69
2024/03/05 03:14:21;;;;;;;44.37;26.43;;;8.50;99.90;;;;;;5055278;28;20273;-69
2024/03/05 03:16:49;;;;;;;46.80;27.47;;;8.50;99.90;;;;;;5045224;28;20455;-69
2024/03/05 03:19:15;;;;;;;38.87;25.50;;;8.40;99.90;;;;;;5055805;28;20458;-69
2024/03/05 03:21:41;;;;;;;40.90;25.33;;;8.40;99.90;;;;;;5064927;28;20423;-69
2024/03/05 03:24:08;;;;;;;38.60;25.73;;;8.40;99.90;;;;;;5045879;28;20434;-69
2024/03/05 03:26:35;;;;;;;44.17;25.37;;;8.30;99.90;;;;;;5065228;28;20563;-69
2024/03/05 03:29:00;;;;;;;42.57;25.70;;;8.30;99.90;;;;;;5052714;28;20448;-69
2024/03/05 03:31:26;;;;;;;44.00;25.67;;;8.30;99.90;;;;;;5062688;28;20432;-69
2024/03/05 03:33:52;;;;;;;39.70;24.53;;;8.30;99.90;;;;;;5056287;28;20645;-69
2024/03/05 03:36:24;;;;;;;41.03;22.77;;;8.20;99.90;;;;;;5055855;28;20467;-69
2024/03/05 03:38:50;;;;;;;42.67;26.77;;;8.20;99.90;;;;;;5040270;28;20198;-69
2024/03/05 03:41:16;;;;;;;41.57;24.50;;;8.30;99.90;;;;;;5065037;28;20427;-69
2024/03/05 03:43:42;;;;;;;43.67;26.20;;;8.30;99.90;;;;;;5060667;28;20965;-69
2024/03/05 03:46:08;;;;;;;41.30;24.70;;;8.30;99.90;;;;;;5041634;28;20272;-69
2024/03/05 03:48:39;;;;;;;45.60;25.60;;;8.20;99.90;;;;;;5048379;28;20255;-69
2024/03/05 03:51:05;;;;;;;44.50;26.80;;;8.30;99.90;;;;;;5034890;28;20425;-70
2024/03/05 03:53:33;;;;;;;39.40;26.73;;;8.20;99.90;;;;;;5049816;28;20435;-70
2024/03/05 03:55:59;;;;;;;46.97;25.73;;;8.30;99.90;;;;;;5065078;28;20490;-69
2024/03/05 03:58:25;;;;;;;45.27;27.03;;;8.30;99.90;;;;;;5053348;28;20472;-70
2024/03/05 04:00:50;;;;;;;40.10;26.17;;;8.30;99.90;;;;;;5043049;28;20482;-69
2024/03/05 04:03:16;;;;;;;40.37;24.60;;;8.20;99.90;;;;;;5057831;28;20235;-69
2024/03/05 04:05:44;;;;;;;36.37;22.70;;;8.30;99.90;;;;;;5065431;28;20169;-69
2024/03/05 04:08:10;;;;;;;38.70;25.17;;;8.40;99.90;;;;;;5057915;28;20284;-69
2024/03/05 04:10:36;;;;;;;43.37;27.00;;;8.30;99.90;;;;;;5054240;28;20510;-69
2024/03/05 04:13:03;;;;;;;42.67;23.53;;;8.30;99.90;;;;;;5055405;28;20178;-69
2024/03/05 04:15:29;;;;;;;41.13;24.60;;;8.30;99.90;;;;;;5045572;28;20435;-69
2024/03/05 04:17:55;;;;;;;49.43;25.20;;;8.30;99.90;;;;;;5053664;28;20961;-69
2024/03/05 04:20:20;;;;;;;41.00;25.13;;;8.30;99.90;;;;;;5041452;28;20172;-69
2024/03/05 04:22:46;;;;;;;45.70;25.57;;;8.30;99.90;;;;;;5062947;28;20422;-69
2024/03/05 04:25:13;;;;;;;44.40;26.00;;;8.30;99.90;;;;;;5046432;28;20189;-69
2024/03/05 04:27:45;;;;;;;39.40;25.70;;;8.30;99.90;;;;;;5058948;28;20442;-69
2024/03/05 04:30:13;;;;;;;41.07;25.60;;;8.30;99.90;;;;;;5037189;28;20427;-69
2024/03/05 04:32:49;;;;;;;40.97;24.47;;;8.20;99.90;;;;;;5058430;28;20425;-69
2024/03/05 04:35:16;;;;;;;45.07;28.00;;;8.30;99.90;;;;;;5068268;28;20542;-69
2024/03/05 04:37:42;;;;;;;36.53;24.40;;;8.30;99.90;;;;;;5047061;28;20467;-69
2024/03/05 04:40:12;;;;;;;38.43;26.37;;;8.30;99.90;;;;;;5056902;28;20467;-69
2024/03/05 04:42:39;;;;;;;40.80;23.53;;;8.30;99.90;;;;;;5054221;28;20758;-69
2024/03/05 04:45:05;;;;;;;44.77;25.00;;;8.30;99.90;;;;;;5039918;28;20440;-69
2024/03/05 04:47:31;;;;;;;41.53;24.50;;;8.20;99.90;;;;;;5064562;28;20439;-69
2024/03/05 04:49:57;;;;;;;50.20;28.63;;;8.20;99.90;;;;;;5055315;28;21003;-70
2024/03/05 04:52:23;;;;;;;43.57;25.10;;;8.20;99.90;;;;;;5053469;28;20435;-69
2024/03/05 04:54:48;;;;;;;44.27;26.40;;;8.10;99.90;;;;;;5052314;28;20436;-70
2024/03/05 04:57:14;;;;;;;53.20;27.47;;;8.10;99.90;;;;;;5063216;28;20209;-70
2024/03/05 04:59:41;;;;;;;41.57;25.70;;;8.10;99.90;;;;;;5059098;28;20207;-69
2024/03/05 05:02:06;;;;;;;42.93;24.80;;;8.00;99.90;;;;;;5057925;28;20596;-70
2024/03/05 05:04:37;;;;;;;49.77;28.73;;;8.10;99.90;;;;;;5066752;28;20415;-69
2024/03/05 05:07:07;;;;;;;43.53;25.33;;;8.10;99.90;;;;;;5050293;28;20555;-69
2024/03/05 05:09:33;;;;;;;49.90;27.77;;;8.10;99.90;;;;;;5061972;28;20444;-70
2024/03/05 05:11:59;;;;;;;46.33;26.70;;;8.10;99.90;;;;;;5058131;28;20431;-69
2024/03/05 05:14:24;;;;;;;53.27;26.97;;;8.10;99.90;;;;;;5049815;28;20436;-69
2024/03/05 05:16:51;;;;;;;41.17;25.47;;;8.10;99.90;;;;;;5047365;28;20205;-70
2024/03/05 05:19:17;;;;;;;45.60;28.53;;;8.20;99.90;;;;;;5057791;28;20670;-70
2024/03/05 05:21:45;;;;;;;42.37;25.83;;;8.20;99.90;;;;;;5059548;28;20464;-70
2024/03/05 05:24:11;;;;;;;46.67;25.30;;;8.20;99.90;;;;;;5056159;28;20258;-69
2024/03/05 05:26:38;;;;;;;43.73;25.63;;;8.20;99.90;;;;;;5053256;28;20806;-69
2024/03/05 05:29:03;;;;;;;50.37;29.33;;;8.20;99.90;;;;;;5058877;28;20444;-70
2024/03/05 05:31:29;;;;;;;50.50;28.50;;;8.20;99.90;;;;;;5049058;28;20452;-69
2024/03/05 05:33:57;;;;;;;46.50;27.20;;;8.10;99.90;;;;;;5039996;28;20291;-69
2024/03/05 05:36:23;;;;;;;43.10;26.27;;;8.10;99.90;;;;;;5051437;28;20200;-69
2024/03/05 05:38:50;;;;;;;44.07;24.90;;;8.20;99.90;;;;;;5068736;28;20455;-70
2024/03/05 05:41:18;;;;;;;45.50;25.17;;;8.20;99.90;;;;;;5052459;28;20183;-70
2024/03/05 05:43:44;;;;;;;39.10;24.67;;;8.30;99.90;;;;;;5058330;28;20525;-69
2024/03/05 05:46:14;;;;;;;45.67;26.20;;;8.20;99.90;;;;;;5055732;28;20851;-70
2024/03/05 05:48:42;;;;;;;55.97;29.37;;;8.20;99.90;;;;;;5064633;28;20188;-70
2024/03/05 05:51:10;;;;;;;42.33;25.47;;;8.20;99.90;;;;;;5056660;28;20428;-69
2024/03/05 05:53:36;;;;;;;46.67;26.60;;;8.20;99.90;;;;;;5043283;28;20435;-69
2024/03/05 05:56:01;;;;;;;52.00;28.57;;;8.30;99.90;;;;;;5052975;28;20457;-70
2024/03/05 05:58:27;;;;;;;51.00;28.33;;;8.20;99.90;;;;;;5065135;28;20471;-69
2024/03/05 06:00:53;;;;;;;51.63;28.50;;;8.20;99.90;;;;;;5051519;28;20652;-70
2024/03/05 06:03:18;;;;;;;52.13;27.80;;;8.20;99.90;;;;;;5056573;28;20642;-69
2024/03/05 06:05:46;;;;;;;51.40;27.43;;;8.20;99.90;;;;;;5057395;28;20932;-69
2024/03/05 06:08:13;;;;;;;50.83;27.63;;;8.20;99.90;;;;;;5071309;28;20655;-69
2024/03/05 06:10:41;;;;;;;49.93;28.63;;;8.20;99.90;;;;;;5055994;28;20459;-69
2024/03/05 06:13:07;;;;;;;49.37;28.17;;;8.20;99.90;;;;;;5052856;28;20427;-69
2024/03/05 06:15:33;;;;;;;51.30;29.37;;;8.20;99.90;;;;;;5054374;28;20436;-69
2024/03/05 06:17:59;;;;;;;58.87;29.77;;;8.30;99.90;;;;;;5060317;28;20246;-69
2024/03/05 06:20:28;;;;;;;53.73;27.50;;;8.20;99.90;;;;;;5051984;28;20157;-69
2024/03/05 06:22:54;;;;;;;58.70;29.37;;;8.30;99.90;;;;;;5051898;28;20811;-69
2024/03/05 06:25:19;;;;;;;52.07;32.57;;;8.50;99.90;;;;;;5051294;28;20435;-69
2024/03/05 06:27:45;;;;;;;47.70;28.53;;;8.50;99.90;;;;;;5051110;28;20177;-69
2024/03/05 06:30:17;;;;;;;51.67;29.33;;;8.50;99.90;;;;;;5051786;28;20181;-69
2024/03/05 06:32:47;;;;;;;54.47;30.07;;;8.60;99.90;;;;;;5051935;28;20173;-69
2024/03/05 06:35:17;;;;;;;49.87;29.30;;;8.50;99.90;;;;;;5044666;28;20487;-69
2024/03/05 06:37:44;;;;;;;54.03;28.80;;;8.50;99.90;;;;;;5029767;28;20468;-69
2024/03/05 06:40:16;;;;;;;46.97;26.13;;;8.40;99.90;;;;;;5037384;28;20421;-69
2024/03/05 06:42:41;;;;;;;47.40;28.53;;;8.50;99.90;;;;;;5051649;28;20455;-69
2024/03/05 06:45:14;;;;;;;49.83;27.83;;;8.50;99.90;;;;;;5050538;28;20420;-69
2024/03/05 06:47:54;;;;;;;51.13;27.80;;;8.60;99.90;;;;;;5050412;28;20659;-69
2024/03/05 06:50:23;;;;;;;48.37;26.23;;;8.60;99.90;;;;;;5051867;28;20887;-69
2024/03/05 06:58:17;;;;;;;54.37;28.07;;;8.60;99.90;;;;;;5030827;28;20610;-69
2024/03/05 07:00:46;;;;;;;49.87;28.50;;;8.60;99.90;;;;;;5031842;28;20934;-69
2024/03/05 07:03:12;;;;;;;51.33;28.47;;;8.60;99.90;;;;;;5031699;28;20170;-68
2024/03/05 07:05:38;;;;;;;54.60;28.30;;;8.60;99.90;;;;;;5040013;28;20427;-70
2024/03/05 07:08:05;;;;;;;51.73;29.80;;;8.50;99.90;;;;;;5054633;28;20428;-70
2024/03/05 07:10:33;;;;;;;49.50;28.97;;;8.40;99.90;;;;;;5050474;28;20663;-69
2024/03/05 07:12:59;;;;;;;47.20;29.43;;;8.40;99.90;;;;;;5035486;28;20417;-69
2024/03/05 07:15:25;;;;;;;54.20;30.77;;;8.40;99.90;;;;;;5035850;28;20839;-69
2024/03/05 07:17:51;;;;;;;54.10;27.83;;;8.40;99.90;;;;;;5034536;28;21008;-69
2024/03/05 07:20:22;;;;;;;53.20;29.40;;;8.40;99.90;;;;;;5035324;28;20253;-69
2024/03/05 07:22:49;;;;;;;51.27;27.27;;;8.40;99.90;;;;;;5035286;28;20177;-69
2024/03/05 07:25:15;;;;;;;50.27;27.27;;;8.30;99.90;;;;;;5035601;28;20424;-69
2024/03/05 07:27:45;;;;;;;54.70;29.50;;;8.30;99.90;;;;;;5054036;28;20505;-69
2024/03/05 07:30:17;;;;;;;54.07;27.33;;;8.30;99.90;;;;;;5055156;28;20180;-69
2024/03/05 07:32:45;;;;;;;56.10;29.90;;;8.40;99.90;;;;;;5055019;28;20482;-68
2024/03/05 07:35:11;;;;;;;51.97;28.23;;;8.40;99.90;;;;;;5054971;28;20423;-69
2024/03/05 07:37:37;;;;;;;55.43;31.93;;;8.40;99.90;;;;;;5034571;28;20509;-69
2024/03/05 07:40:16;;;;;;;54.27;29.23;;;8.40;99.90;;;;;;5034871;28;20841;-69
2024/03/05 07:42:53;;;;;;;60.27;31.00;;;8.40;99.90;;;;;;5053521;28;20268;-69
2024/03/05 07:45:20;;;;;;;51.13;29.97;;;8.40;99.90;;;;;;5054870;28;20495;-69
2024/03/05 07:47:47;;;;;;;55.40;28.70;;;8.50;99.90;;;;;;5050300;28;20452;-69
2024/03/05 07:50:14;;;;;;;56.37;27.87;;;8.50;99.90;;;;;;5034709;28;20424;-69
2024/03/05 07:52:42;;;;;;;48.47;29.13;;;8.60;99.90;;;;;;5034569;28;20451;-68
2024/03/05 07:55:09;;;;;;;47.97;26.87;;;8.60;99.90;;;;;;5034739;28;20447;-69
2024/03/05 07:57:37;;;;;;;48.53;28.00;;;8.60;99.90;;;;;;5038945;28;20483;-69
2024/03/05 08:00:12;;;;;;;45.73;30.13;;;8.70;99.90;;;;;;5058538;28;20439;-69
2024/03/05 08:02:40;;;;;;;43.70;26.37;;;8.80;99.90;;;;;;5054108;28;20522;-69
2024/03/05 08:05:06;;;;;;;48.73;30.03;;;8.90;99.90;;;;;;5054245;28;20420;-69
2024/03/05 08:07:35;;;;;;;49.57;27.60;;;9.00;99.90;;;;;;5053543;28;20427;-69
2024/03/05 08:10:08;;;;;;;55.07;30.03;;;9.00;99.90;;;;;;5053643;28;20551;-69
2024/03/05 08:12:38;;;;;;;48.27;25.83;;;8.90;99.90;;;;;;5053365;28;20930;-68
2024/03/05 08:15:12;;;;;;;47.17;29.37;;;8.90;99.90;;;;;;5054017;28;20448;-69
2024/03/05 08:17:38;;;;;;;48.67;27.13;;;8.80;99.90;;;;;;5053174;28;20456;-69
2024/03/05 08:20:07;;;;;;;45.37;27.03;;;8.80;99.90;;;;;;5043802;28;20490;-69
2024/03/05 08:22:34;;;;;;;45.93;28.40;;;8.80;99.90;;;;;;5034014;28;20425;-69
2024/03/05 08:25:09;;;;;;;45.00;26.33;;;9.00;99.90;;;;;;5034122;28;20425;-69
2024/03/05 08:27:41;;;;;;;39.77;26.93;;;9.00;99.90;;;;;;5034529;28;20435;-69
2024/03/05 08:30:09;;;;;;;44.13;26.57;;;8.90;99.90;;;;;;5051217;28;20471;-69
2024/03/05 08:32:38;;;;;;;43.17;25.23;;;8.80;99.90;;;;;;5053869;28;20515;-69
2024/03/05 08:35:06;;;;;;;42.10;24.20;;;8.80;99.90;;;;;;5052537;28;20503;-69
2024/03/05 08:37:31;;;;;;;43.70;26.07;;;8.80;99.90;;;;;;5044187;28;21031;-69
2024/03/05 08:39:57;;;;;;;39.43;25.13;;;8.80;99.90;;;;;;5033847;28;20433;-69
2024/03/05 08:42:26;;;;;;;42.70;26.10;;;9.00;99.90;;;;;;5034228;28;20715;-69
2024/03/05 08:44:51;;;;;;;44.83;27.03;;;9.00;99.90;;;;;;5033634;28;20809;-69
2024/03/05 08:47:17;;;;;;;43.10;24.47;;;9.10;99.90;;;;;;5047730;28;20507;-69
2024/03/05 08:49:42;;;;;;;44.40;26.07;;;9.20;99.90;;;;;;5052906;28;20193;-69
2024/03/05 08:52:08;;;;;;;49.23;28.23;;;9.20;99.90;;;;;;5052223;28;20180;-68
2024/03/05 08:54:34;;;;;;;43.50;26.70;;;9.20;99.90;;;;;;5053313;28;20169;-68
2024/03/05 08:57:00;;;;;;;46.67;27.43;;;9.20;99.90;;;;;;5048846;28;20197;-69
2024/03/05 08:59:26;;;;;;;37.57;24.97;;;9.10;99.90;;;;;;5033365;28;20433;-69
2024/03/05 09:01:53;;;;;;;50.37;29.47;;;9.10;99.90;;;;;;5033420;28;20221;-69
2024/03/05 09:04:23;;;;;;;44.00;26.27;;;9.10;99.90;;;;;;5033294;28;20417;-69
2024/03/05 09:06:49;;;;;;;43.67;25.20;;;9.10;99.90;;;;;;5032818;28;20975;-69
2024/03/05 09:09:15;;;;;;;47.67;29.13;;;9.00;99.90;;;;;;5032598;28;20446;-69
2024/03/05 09:11:41;;;;;;;43.10;23.17;;;8.90;99.90;;;;;;5033254;28;20170;-69
2024/03/05 09:14:06;;;;;;;37.53;22.13;;;8.90;99.90;;;;;;5052028;28;20971;-69
2024/03/05 09:16:33;;;;;;;21.30;15.17;;;8.80;99.90;;;;;;5052273;28;20206;-69
2024/03/05 09:18:58;;;;;;;22.60;14.13;;;8.60;99.90;;;;;;5053091;28;20189;-69
2024/03/05 09:21:24;;;;;;;21.80;14.23;;;8.50;99.90;;;;;;5052680;28;20416;-69
2024/03/05 09:23:50;;;;;;;21.30;13.10;;;8.40;99.90;;;;;;5036379;28;20243;-69
2024/03/05 09:26:16;;;;;;;17.53;11.23;;;8.30;99.90;;;;;;5031434;28;20170;-69
2024/03/05 09:28:41;;;;;;;16.10;10.23;;;8.30;99.90;;;;;;5032169;28;20564;-69
2024/03/05 09:31:07;;;;;;;14.07;9.83;;;8.20;99.90;;;;;;5032704;28;20421;-69
2024/03/05 09:33:33;;;;;;;13.60;10.10;;;8.10;99.90;;;;;;5032647;28;20205;-69
2024/03/05 09:35:58;;;;;;;17.13;10.13;;;8.10;99.90;;;;;;5049032;28;20491;-69
2024/03/05 09:38:29;;;;;;;15.20;9.60;;;8.10;99.90;;;;;;5051814;28;20689;-69
2024/03/05 09:40:55;;;;;;;15.40;10.03;;;8.10;99.90;;;;;;5052581;28;20161;-69
2024/03/05 09:43:22;;;;;;;15.40;11.90;;;8.00;99.90;;;;;;5043547;28;20949;-69
2024/03/05 09:45:48;;;;;;;15.00;10.10;;;7.90;99.90;;;;;;5032603;28;20428;-69
2024/03/05 09:48:18;;;;;;;12.30;9.70;;;7.90;99.90;;;;;;5031632;28;20469;-69
2024/03/05 09:50:47;;;;;;;13.40;9.20;;;7.90;99.90;;;;;;5032481;28;20790;-69
2024/03/05 09:53:14;;;;;;;13.27;9.37;;;8.00;99.90;;;;;;5038501;28;20416;-68
2024/03/05 09:55:40;;;;;;;11.77;8.20;;;8.00;99.90;;;;;;5052473;28;20993;-68
2024/03/05 09:58:10;;;;;;;13.67;8.53;;;7.90;99.90;;;;;;5050802;28;20496;-68
2024/03/05 10:00:38;;;;;;;10.93;8.50;;;8.00;99.90;;;;;;5052174;28;20922;-68
2024/03/05 10:03:08;;;;;;;18.50;12.73;;;8.10;99.90;;;;;;5051211;28;20424;-68
2024/03/05 10:05:38;;;;;;;15.33;9.90;;;8.10;99.90;;;;;;5052026;28;20473;-68
2024/03/05 10:08:05;;;;;;;12.80;7.60;;;8.10;99.90;;;;;;5050922;28;20447;-68
2024/03/05 10:10:32;;;;;;;13.27;7.77;;;8.10;99.90;;;;;;5052016;28;20799;-68
2024/03/05 10:13:01;;;;;;;10.57;7.43;;;8.20;99.90;;;;;;5050315;28;20782;-69
2024/03/05 10:15:27;;;;;;;11.73;7.70;;;8.20;99.90;;;;;;5031952;28;20424;-68
2024/03/05 10:17:54;;;;;;;11.43;8.67;;;8.40;99.90;;;;;;5031133;28;20969;-67
2024/03/05 10:20:28;;;;;;;11.37;7.07;;;8.40;99.90;;;;;;5032031;28;20178;-68
2024/03/05 10:22:58;;;;;;;10.97;6.63;;;8.50;99.90;;;;;;5032524;28;20412;-68
2024/03/05 10:25:25;;;;;;;11.87;8.47;;;8.60;99.90;;;;;;5050629;28;20428;-68
2024/03/05 10:27:51;;;;;;;10.83;7.63;;;8.70;99.90;;;;;;5051180;28;20423;-68
2024/03/05 10:30:33;;;;;;;10.37;8.13;;;8.70;99.90;;;;;;5033334;28;20456;-68
2024/03/05 10:33:00;;;;;;;9.00;7.47;;;8.80;99.90;;;;;;5032037;28;20511;-68
2024/03/05 10:35:26;;;;;;;12.47;6.43;;;8.90;99.90;;;;;;5032350;28;20870;-68
2024/03/05 10:38:03;;;;;;;8.13;6.70;;;8.80;99.90;;;;;;5030985;28;20468;-68
2024/03/05 10:40:32;;;;;;;9.10;7.53;;;8.90;99.90;;;;;;5033812;28;20954;-68
2024/03/05 10:43:00;;;;;;;11.37;7.43;;;8.90;99.90;;;;;;5035837;28;20416;-68
2024/03/05 10:45:29;;;;;;;10.40;7.10;;;9.10;99.90;;;;;;5053445;28;20506;-68
2024/03/05 10:47:58;;;;;;;9.07;7.27;;;9.10;99.90;;;;;;5054833;28;20420;-68
2024/03/05 10:50:28;;;;;;;8.13;7.20;;;9.10;99.90;;;;;;5052183;28;20434;-68
2024/03/05 10:52:57;;;;;;;6.40;5.80;;;9.20;99.90;;;;;;5055127;28;20427;-71
2024/03/05 10:55:24;;;;;;;8.50;7.10;;;9.20;99.90;;;;;;5047199;28;20435;-70
2024/03/05 11:00:35;;;;;;;6.03;5.27;;;9.20;99.90;;;;;;5049820;28;20955;-70
2024/03/05 11:03:10;;;;;;;7.20;5.70;;;9.10;99.90;;;;;;5049363;28;20424;-68
2024/03/05 11:05:53;;;;;;;12.17;5.83;;;9.00;99.90;;;;;;5042522;28;20428;-68
2024/03/05 11:08:24;;;;;;;6.80;5.30;;;9.10;99.90;;;;;;5046548;28;20906;-67
2024/03/05 11:10:57;;;;;;;5.67;4.87;;;9.10;99.90;;;;;;5048675;28;20421;-69
2024/03/05 11:13:24;;;;;;;6.93;5.70;;;9.10;99.90;;;;;;5049357;28;20424;-67
2024/03/05 11:15:50;;;;;;;5.10;4.60;;;9.10;99.90;;;;;;5051880;28;20485;-69
2024/03/05 11:18:36;;;;;;;5.60;5.07;;;9.20;99.90;;;;;;5054236;28;20439;-69
2024/03/05 11:21:07;;;;;;;5.77;4.30;;;9.10;99.90;;;;;;5054080;28;20922;-68
2024/03/05 11:23:32;;;;;;;3.70;3.40;;;9.10;99.90;;;;;;5054112;28;20478;-69
2024/03/05 11:26:03;;;;;;;4.63;4.20;;;9.00;99.90;;;;;;5051747;28;20460;-68
2024/03/05 11:28:29;;;;;;;4.87;4.00;;;9.00;99.90;;;;;;5050873;28;20185;-68
2024/03/05 11:31:17;;;;;;;4.27;3.87;;;8.90;99.90;;;;;;5053336;28;20478;-68
2024/03/05 11:33:51;;;;;;;4.50;4.10;;;8.90;99.90;;;;;;5043136;28;20470;-68
2024/03/05 11:36:23;;;;;;;4.43;3.70;;;9.10;99.90;;;;;;5053038;28;20447;-68
2024/03/05 11:39:19;;;;;;;3.57;3.30;;;9.10;99.90;;;;;;5054140;28;20435;-68
2024/03/05 11:41:46;;;;;;;4.37;4.00;;;9.00;99.90;;;;;;5034732;28;20429;-68
2024/03/05 11:44:14;;;;;;;6.50;3.43;;;9.00;99.90;;;;;;5034307;28;20479;-68
2024/03/05 11:46:41;;;;;;;3.33;2.77;;;9.00;99.90;;;;;;5052988;28;20431;-67
2024/03/05 11:49:07;;;;;;;3.80;3.50;;;8.90;99.90;;;;;;5053840;28;20489;-68
2024/03/05 11:51:33;;;;;;;5.07;4.00;;;8.90;99.90;;;;;;5045468;28;20937;-68
2024/03/05 11:54:01;;;;;;;3.60;3.30;;;8.90;99.90;;;;;;5044502;28;20507;-67
2024/03/05 11:56:27;;;;;;;4.07;3.60;;;8.90;99.90;;;;;;5041361;28;20209;-68
2024/03/05 11:58:56;;;;;;;4.60;3.97;;;8.90;99.90;;;;;;5048364;28;20456;-68
2024/03/05 12:01:24;;;;;;;3.63;3.33;;;9.00;99.90;;;;;;5048184;28;20180;-68
2024/03/05 12:04:09;;;;;;;3.50;3.20;;;9.00;99.90;;;;;;5054008;28;20426;-69
2024/03/05 12:06:39;;;;;;;3.90;3.50;;;8.90;99.90;;;;;;5053530;28;20447;-69
2024/03/05 12:09:18;;;;;;;4.47;3.70;;;8.80;99.90;;;;;;5050665;28;20464;-68
2024/03/05 12:12:05;;;;;;;4.03;3.63;;;8.80;99.90;;;;;;5043935;28;20456;-69
2024/03/05 12:14:35;;;;;;;5.00;4.50;;;8.90;99.90;;;;;;5043947;28;20454;-69
2024/03/05 12:17:03;;;;;;;4.10;3.70;;;8.80;99.90;;;;;;5043649;28;20459;-69
2024/03/05 12:19:33;;;;;;;3.63;3.33;;;8.80;99.90;;;;;;5044941;28;20961;-70
2024/03/05 12:21:59;;;;;;;10.90;8.00;;;8.90;99.90;;;;;;5044284;28;20425;-69
2024/03/05 12:24:27;;;;;;;5.50;4.60;;;8.90;99.90;;;;;;5042871;28;20423;-69
2024/03/05 12:26:57;;;;;;;6.33;4.03;;;8.90;99.90;;;;;;5043612;28;20428;-69
2024/03/05 12:29:32;;;;;;;3.43;3.13;;;8.90;99.90;;;;;;5044085;28;20470;-68
2024/03/05 12:32:01;;;;;;;3.70;3.40;;;8.90;99.90;;;;;;5049366;28;20427;-68
2024/03/05 12:34:27;;;;;;;4.23;3.60;;;8.90;99.90;;;;;;5054857;28;20444;-68
2024/03/05 12:36:52;;;;;;;3.27;3.00;;;8.90;99.90;;;;;;5057252;28;20456;-68
2024/03/05 12:39:18;;;;;;;3.47;3.17;;;9.00;99.90;;;;;;5058735;28;20444;-67
2024/03/05 12:42:05;;;;;;;3.03;2.83;;;9.00;99.90;;;;;;5041618;28;20243;-67
2024/03/05 12:44:31;;;;;;;3.03;2.83;;;9.20;99.90;;;;;;5050672;28;20953;-67
2024/03/05 12:47:08;;;;;;;3.40;3.10;;;9.40;99.90;;;;;;5055172;28;20478;-67
2024/03/05 12:49:44;;;;;;;3.70;3.40;;;9.60;99.90;;;;;;5053692;28;20985;-67
2024/03/05 12:52:12;;;;;;;2.50;2.30;;;9.80;99.90;;;;;;5047327;28;20428;-67